Time;durP1;ratioP1;P1;durP2;ratioP2;P2;SDS_P1;SDS_P2;PMS_P1;PMS_P2;Temp;Humidity;BMP_temperature;BMP_pressure;BME280_temperature;BME280_humidity;BME280_pressure;Samples;Min_cycle;Max_cycle;Signal;HPM_P1;HPM_P2
2020/12/04 00:01:42;;;;;;;3.13;2.83;;;15.70;81.00;;;15.77;41.08;98169.19;4935935;28;116570;-57
2020/12/04 00:04:08;;;;;;;2.53;2.33;;;15.70;83.90;;;15.92;42.09;98176.66;4910675;28;99516;-57
2020/12/04 00:06:34;;;;;;;4.47;4.07;;;15.90;83.80;;;15.88;42.09;98160.16;4916232;28;106520;-56
2020/12/04 00:09:01;;;;;;;4.43;4.03;;;15.90;82.90;;;15.86;39.62;98150.66;4877051;28;105417;-58
2020/12/04 00:11:28;;;;;;;4.07;3.67;;;15.90;78.60;;;15.94;41.92;98142.78;4932601;28;101206;-57
2020/12/04 00:13:53;;;;;;;3.40;3.00;;;16.00;81.60;;;15.86;41.84;98151.50;4896092;28;100295;-58
2020/12/04 00:16:19;;;;;;;2.83;2.53;;;15.80;81.60;;;15.88;40.33;98138.06;4934648;28;121177;-57
2020/12/04 00:18:45;;;;;;;2.23;2.03;;;15.90;81.40;;;15.86;42.36;98134.72;4918914;28;99978;-57
2020/12/04 00:21:14;;;;;;;4.77;4.37;;;15.80;83.90;;;15.75;40.93;98133.91;4928941;28;97512;-57
2020/12/04 00:23:39;;;;;;;3.53;3.23;;;15.80;79.60;;;15.71;42.03;98127.22;4918792;28;109385;-57
2020/12/04 00:26:05;;;;;;;6.80;4.60;;;15.60;82.90;;;15.54;37.99;98124.50;4934716;28;126916;-58
2020/12/04 00:28:31;;;;;;;2.80;2.60;;;15.50;79.20;;;15.58;43.09;98116.06;4935330;28;99509;-57
2020/12/04 00:30:56;;;;;;;3.23;2.90;;;15.30;85.00;;;15.43;43.10;98122.84;4916115;28;119788;-58
2020/12/04 00:33:22;;;;;;;3.13;2.83;;;15.20;84.70;;;15.38;39.72;98114.50;4928612;28;117047;-58
2020/12/04 00:35:48;;;;;;;3.00;2.70;;;15.30;81.10;;;15.25;39.33;98108.69;4916206;28;129468;-56
2020/12/04 00:38:14;;;;;;;4.90;4.43;;;15.20;80.90;;;15.36;39.37;98108.50;4936187;28;113859;-57
2020/12/04 00:40:40;;;;;;;5.67;4.73;;;15.20;81.10;;;15.12;38.63;98101.88;4940127;28;101015;-56
2020/12/04 00:43:06;;;;;;;6.30;5.50;;;15.10;79.90;;;14.94;42.84;98090.34;4934500;28;99166;-56
2020/12/04 00:45:31;;;;;;;3.53;2.87;;;14.70;82.50;;;15.30;43.78;98101.09;4920730;28;100776;-58
2020/12/04 00:47:57;;;;;;;4.97;4.53;;;15.10;86.80;;;14.99;43.59;98087.25;4933770;28;116951;-54
2020/12/04 00:50:23;;;;;;;4.97;4.53;;;14.80;83.80;;;14.91;39.08;98090.63;4917118;28;98524;-56
2020/12/04 00:52:49;;;;;;;2.27;2.07;;;14.90;80.10;;;14.96;43.31;98088.38;4911397;28;127488;-57
2020/12/04 00:55:16;;;;;;;5.40;4.73;;;14.70;85.80;;;14.93;43.61;98077.22;4921544;28;100567;-58
2020/12/04 00:57:41;;;;;;;4.23;3.83;;;14.80;83.80;;;15.04;39.54;98075.22;4936294;28;99245;-58
2020/12/04 01:00:07;;;;;;;4.17;3.77;;;14.90;81.80;;;14.87;44.04;98083.94;4940159;28;115444;-58
2020/12/04 01:02:33;;;;;;;3.77;3.47;;;14.60;85.20;;;14.71;43.66;98079.22;4883418;28;113800;-58
2020/12/04 01:04:59;;;;;;;2.70;2.43;;;14.50;83.30;;;14.90;44.79;98067.75;4934798;28;125824;-58
2020/12/04 01:07:25;;;;;;;4.17;3.30;;;14.60;88.80;;;14.57;42.48;98085.81;4921816;28;104427;-57
2020/12/04 01:09:50;;;;;;;3.03;2.73;;;14.30;85.60;;;14.61;42.88;98077.56;4937818;28;100297;-57
2020/12/04 01:12:16;;;;;;;3.27;2.97;;;14.30;86.40;;;14.51;45.35;98080.25;4881040;28;127744;-59
2020/12/04 01:14:42;;;;;;;6.07;5.43;;;14.10;88.20;;;14.64;40.28;98077.28;4943625;28;97608;-57
2020/12/04 01:17:08;;;;;;;3.57;3.27;;;14.40;83.50;;;14.59;43.93;98065.28;4905066;28;117895;-58
2020/12/04 01:19:33;;;;;;;5.63;5.03;;;14.30;86.40;;;14.34;40.90;98063.19;4937882;28;103062;-58
2020/12/04 01:21:59;;;;;;;4.10;3.67;;;14.10;83.10;;;14.64;45.12;98061.38;4909904;28;124124;-57
2020/12/04 01:24:25;;;;;;;4.33;3.67;;;14.20;89.30;;;14.62;40.98;98061.53;4937466;28;125144;-58
2020/12/04 01:26:50;;;;;;;3.40;3.10;;;14.50;82.60;;;14.73;42.76;98057.84;4891997;28;123188;-57
2020/12/04 01:29:16;;;;;;;2.83;2.53;;;14.50;84.70;;;15.02;42.60;98055.09;4930008;28;113110;-57
2020/12/04 01:31:47;;;;;;;1.90;1.77;;;14.90;86.40;;;15.01;44.87;98048.13;4912135;28;126628;-58
2020/12/04 01:34:13;;;;;;;2.73;2.43;;;14.80;87.80;;;15.19;44.50;98046.41;4905203;28;107897;-58
2020/12/04 01:36:39;;;;;;;4.77;4.27;;;15.10;87.70;;;15.14;43.57;98043.31;4929742;28;98516;-58
2020/12/04 01:39:04;;;;;;;3.03;2.57;;;15.00;84.30;;;15.18;44.03;98029.59;4889305;28;101973;-57
2020/12/04 01:41:36;;;;;;;2.87;2.63;;;15.00;86.70;;;15.26;39.19;98028.88;4907673;28;129073;-58
2020/12/04 01:44:04;;;;;;;3.33;3.03;;;15.20;82.50;;;15.46;42.98;98021.63;4903637;28;124327;-57
2020/12/04 01:46:30;;;;;;;2.37;2.17;;;15.40;85.50;;;15.55;42.21;98028.72;4913545;28;99184;-58
2020/12/04 01:48:56;;;;;;;5.13;4.63;;;15.60;84.20;;;15.58;42.42;98019.59;4915558;28;97643;-56
2020/12/04 01:51:24;;;;;;;3.93;3.60;;;15.70;82.90;;;15.65;42.82;98021.56;4908108;28;125568;-57
2020/12/04 01:53:51;;;;;;;2.07;1.83;;;15.70;83.90;;;15.80;43.08;98013.91;4895532;28;104810;-57
2020/12/04 01:56:17;;;;;;;3.20;2.90;;;15.80;85.70;;;15.72;41.94;98005.84;4914907;28;96981;-57
2020/12/04 01:58:43;;;;;;;3.23;2.93;;;15.70;82.90;;;15.88;42.11;98010.47;4917994;28;99860;-58
2020/12/04 02:01:15;;;;;;;3.63;3.07;;;15.90;83.60;;;15.75;42.67;97993.06;4937597;28;99854;-57
2020/12/04 02:03:42;;;;;;;2.30;2.10;;;15.80;82.70;;;15.74;41.96;98004.69;4917517;28;100792;-57
2020/12/04 02:06:52;;;;;;;4.70;4.30;;;15.70;81.90;;;15.80;39.01;97994.47;4935265;28;100298;-56
2020/12/04 02:09:26;;;;;;;5.67;5.17;;;15.90;80.90;;;15.65;41.82;97997.66;4929660;28;97986;-58
2020/12/04 02:11:53;;;;;;;2.40;2.20;;;15.60;82.00;;;15.80;42.58;97986.50;4946314;28;97178;-58
2020/12/04 02:14:20;;;;;;;6.40;4.90;;;15.80;85.10;;;15.83;38.00;97976.38;4926087;28;97012;-58
2020/12/04 02:16:46;;;;;;;3.07;2.77;;;15.90;78.80;;;15.91;40.67;97978.25;4971120;28;104001;-58
2020/12/04 02:19:12;;;;;;;4.13;3.57;;;16.00;82.00;;;15.89;42.06;97975.75;4953377;28;97150;-58
2020/12/04 02:21:40;;;;;;;3.80;3.23;;;15.90;83.50;;;16.00;41.95;97978.19;4952831;28;98508;-57
2020/12/04 02:24:06;;;;;;;4.63;3.87;;;16.10;82.40;;;15.75;41.92;97963.84;4968621;28;102561;-58
2020/12/04 02:26:34;;;;;;;3.57;3.27;;;15.80;80.90;;;15.70;42.39;97958.16;4951633;28;117147;-58
2020/12/04 02:29:03;;;;;;;4.33;2.53;;;15.60;83.00;;;15.59;42.89;97958.38;4951435;28;97526;-58
2020/12/04 02:31:30;;;;;;;5.67;5.07;;;15.50;83.90;;;15.46;37.85;97947.25;4950086;28;105597;-58
2020/12/04 02:33:56;;;;;;;3.10;2.63;;;15.50;78.60;;;15.68;41.45;97944.19;4950993;28;97639;-62
2020/12/04 02:36:21;;;;;;;3.60;3.30;;;15.60;82.90;;;15.53;42.46;97932.41;4934644;28;102493;-58
2020/12/04 02:38:48;;;;;;;3.60;3.30;;;15.50;81.90;;;15.73;42.26;97941.91;4969378;28;97949;-58
2020/12/04 02:41:14;;;;;;;3.00;2.43;;;15.70;83.40;;;15.57;40.98;97933.75;4946170;28;97398;-58
2020/12/04 02:43:39;;;;;;;3.07;2.77;;;15.50;82.20;;;15.77;42.10;97922.03;4965108;28;129153;-57
2020/12/04 02:46:08;;;;;;;2.07;1.87;;;15.80;83.90;;;15.71;42.40;97925.28;4953990;28;114397;-58
2020/12/04 02:48:34;;;;;;;3.30;3.00;;;15.70;83.70;;;15.80;42.29;97917.41;4947554;28;97213;-58
2020/12/04 02:51:00;;;;;;;2.03;1.83;;;15.80;83.20;;;15.74;40.04;97905.53;4935564;28;97052;-56
2020/12/04 02:53:26;;;;;;;3.43;3.13;;;15.80;81.30;;;15.86;41.82;97906.97;4967649;28;97774;-58
2020/12/04 02:55:52;;;;;;;3.10;2.80;;;15.90;82.00;;;15.87;39.16;97897.19;4969218;28;114864;-58
2020/12/04 02:58:17;;;;;;;2.33;2.13;;;16.00;80.30;;;15.94;40.13;97903.56;4928304;28;110540;-59
2020/12/04 03:00:43;;;;;;;5.07;3.57;;;16.10;80.50;;;15.90;40.73;97902.19;4965846;28;97500;-58
2020/12/04 03:03:09;;;;;;;2.57;2.37;;;16.00;79.70;;;15.74;42.12;97898.41;4933235;28;126569;-58
2020/12/04 03:05:35;;;;;;;2.93;2.73;;;15.70;83.30;;;15.91;41.95;97898.53;4969604;28;117267;-56
2020/12/04 03:08:00;;;;;;;3.60;3.30;;;15.90;83.20;;;15.76;41.47;97891.09;4951086;28;99575;-58
2020/12/04 03:10:26;;;;;;;2.07;1.93;;;15.80;80.40;;;15.87;39.46;97889.22;4956537;28;122012;-60
2020/12/04 03:12:52;;;;;;;3.13;2.83;;;15.90;80.00;;;15.82;37.63;97878.22;4944998;28;120465;-58
2020/12/04 03:15:17;;;;;;;4.17;3.80;;;16.00;77.90;;;15.66;37.66;97874.44;4937952;28;102119;-58
2020/12/04 03:17:43;;;;;;;3.47;3.17;;;15.70;77.60;;;15.71;41.89;97874.81;4942365;28;110057;-58
2020/12/04 03:20:09;;;;;;;1.80;1.70;;;15.70;82.00;;;15.74;42.41;97871.00;4970441;28;97153;-58
2020/12/04 03:22:35;;;;;;;4.50;3.93;;;15.80;83.30;;;15.57;41.66;97856.72;4943884;28;125162;-60
2020/12/04 03:25:01;;;;;;;3.50;3.20;;;15.50;81.70;;;15.75;42.49;97864.69;4971968;28;97126;-58
2020/12/04 03:27:27;;;;;;;2.00;1.87;;;15.70;84.00;;;15.89;42.38;97868.63;4937644;28;116783;-58
2020/12/04 03:29:53;;;;;;;5.10;4.07;;;15.90;83.90;;;15.73;40.39;97859.53;4970429;28;117337;-58
2020/12/04 03:32:19;;;;;;;1.80;1.70;;;15.90;79.60;;;15.88;42.53;97864.28;4963358;28;97473;-58
2020/12/04 03:34:45;;;;;;;2.53;1.80;;;15.90;84.00;;;15.83;42.40;97864.78;4945182;28;103366;-59
2020/12/04 03:37:11;;;;;;;2.70;2.40;;;15.80;84.10;;;15.92;38.05;97863.84;4968256;28;96780;-58
2020/12/04 03:39:36;;;;;;;2.33;2.13;;;16.10;79.00;;;16.03;41.81;97854.75;4947179;28;127403;-58
2020/12/04 03:42:03;;;;;;;1.80;1.67;;;16.10;82.30;;;16.15;41.70;97852.69;4965377;28;99009;-59
2020/12/04 03:44:29;;;;;;;3.17;2.87;;;16.30;82.60;;;15.99;37.65;97848.09;4932910;28;97474;-58
2020/12/04 03:46:56;;;;;;;3.23;2.93;;;16.20;76.90;;;15.89;41.83;97852.66;4947935;28;97840;-58
2020/12/04 03:49:21;;;;;;;3.30;2.60;;;15.90;81.20;;;15.85;39.04;97840.69;4950519;28;98113;-58
2020/12/04 03:51:47;;;;;;;3.07;2.80;;;15.90;79.10;;;15.94;37.95;97845.09;4967837;28;127189;-58
2020/12/04 03:54:13;;;;;;;1.60;1.50;;;16.00;79.00;;;16.10;41.66;97852.31;4959404;28;98316;-57
2020/12/04 03:56:40;;;;;;;6.50;5.07;;;16.10;82.60;;;15.89;39.67;97850.00;4947523;28;100844;-58
2020/12/04 03:59:05;;;;;;;4.43;4.03;;;15.90;77.50;;;15.77;41.20;97850.28;4928492;28;104005;-58
2020/12/04 04:01:32;;;;;;;3.97;3.60;;;15.70;79.80;;;15.94;41.84;97845.09;4946131;28;119611;-58
2020/12/04 04:03:58;;;;;;;1.60;1.50;;;16.00;82.40;;;15.92;42.22;97839.09;4972455;28;96917;-58
2020/12/04 04:06:25;;;;;;;2.50;2.30;;;15.90;83.60;;;15.99;41.69;97848.09;4943976;28;106967;-58
2020/12/04 04:08:51;;;;;;;5.33;4.37;;;16.00;81.70;;;15.90;41.02;97843.72;4954768;28;97006;-58
2020/12/04 04:11:16;;;;;;;2.23;2.03;;;16.00;79.70;;;16.02;40.15;97853.09;4944714;28;105774;-58
2020/12/04 04:13:42;;;;;;;3.20;2.90;;;16.10;80.60;;;15.87;41.39;97849.34;4976556;28;114774;-58
2020/12/04 04:16:08;;;;;;;3.03;2.73;;;16.00;80.00;;;15.81;38.73;97836.69;4935407;28;111400;-56
2020/12/04 04:18:34;;;;;;;3.67;3.23;;;15.90;78.40;;;15.81;38.07;97844.66;4944536;28;122173;-57
2020/12/04 04:21:01;;;;;;;2.67;2.47;;;15.90;78.50;;;15.93;41.68;97838.09;4949128;28;97510;-56
2020/12/04 04:23:27;;;;;;;2.40;2.20;;;16.00;81.40;;;15.85;39.04;97840.69;4969790;28;98810;-56
2020/12/04 04:25:53;;;;;;;2.50;2.30;;;16.00;79.00;;;15.84;42.23;97844.34;4952694;28;97458;-55
2020/12/04 04:28:19;;;;;;;3.27;2.97;;;15.80;83.00;;;15.73;40.17;97853.38;4973990;28;97664;-58
2020/12/04 04:30:45;;;;;;;4.50;4.10;;;15.80;79.30;;;15.66;39.32;97855.84;4945154;28;126368;-56
2020/12/04 04:33:11;;;;;;;2.13;2.03;;;15.70;80.00;;;15.36;42.87;97857.06;4973281;28;118721;-56
2020/12/04 04:35:37;;;;;;;3.63;2.67;;;15.20;83.90;;;15.48;39.99;97858.50;4965765;28;97434;-57
2020/12/04 04:38:03;;;;;;;1.50;1.40;;;15.40;80.60;;;15.76;42.46;97864.53;4958072;28;97354;-58
2020/12/04 04:40:29;;;;;;;2.13;1.93;;;15.80;84.50;;;15.66;40.61;97862.97;4965758;28;97135;-57
2020/12/04 04:43:13;;;;;;;3.07;2.77;;;15.70;80.50;;;15.61;41.98;97867.91;4939835;28;99857;-56
2020/12/04 04:45:44;;;;;;;4.20;3.80;;;15.60;81.10;;;15.37;38.88;97882.63;4950022;28;97126;-55
2020/12/04 04:48:29;;;;;;;4.37;3.97;;;15.40;79.80;;;15.39;43.14;97882.47;4935282;28;97426;-57
2020/12/04 04:50:58;;;;;;;2.90;2.33;;;15.10;84.10;;;15.35;43.02;97887.25;4950996;28;97979;-60
2020/12/04 04:53:24;;;;;;;1.77;1.67;;;15.20;83.90;;;15.38;43.67;97902.06;4933736;28;96872;-57
2020/12/04 04:55:57;;;;;;;4.33;3.10;;;15.20;85.90;;;15.34;39.80;97900.69;4952890;28;97848;-56
2020/12/04 04:58:25;;;;;;;2.40;1.77;;;15.30;81.50;;;15.32;43.29;97887.53;4952302;28;97917;-56
2020/12/04 05:00:51;;;;;;;4.17;3.37;;;15.20;85.10;;;15.41;39.26;97896.44;4965240;28;102626;-58
2020/12/04 05:03:16;;;;;;;3.70;3.20;;;15.50;80.70;;;15.52;38.89;97882.94;4952551;28;98448;-54
2020/12/04 05:05:43;;;;;;;3.37;2.90;;;15.60;79.80;;;15.51;42.77;97883.09;4970559;28;97055;-57
2020/12/04 05:08:22;;;;;;;2.57;2.37;;;15.50;82.60;;;15.66;42.07;97890.38;4933042;28;100989;-58
2020/12/04 05:10:50;;;;;;;1.83;1.70;;;15.70;81.80;;;15.66;42.61;97890.38;4953934;28;97357;-58
2020/12/04 05:13:20;;;;;;;3.63;3.33;;;15.60;84.30;;;15.62;42.53;97898.78;4935224;28;98347;-54
2020/12/04 05:15:47;;;;;;;1.70;1.43;;;15.70;82.20;;;15.65;43.22;97893.19;4976062;28;97180;-57
2020/12/04 05:18:18;;;;;;;1.30;1.20;;;15.60;85.10;;;15.80;42.64;97896.97;4939534;28;98436;-56
2020/12/04 05:20:50;;;;;;;2.97;2.67;;;15.80;84.70;;;15.75;40.14;97884.13;4970526;28;98682;-57
2020/12/04 05:23:16;;;;;;;1.33;1.23;;;15.90;78.60;;;15.86;40.14;97895.50;4950284;28;96860;-58
2020/12/04 05:25:48;;;;;;;2.57;2.37;;;16.00;81.80;;;15.93;42.21;97902.72;4939883;28;103710;-57
2020/12/04 05:28:25;;;;;;;1.53;1.40;;;16.00;82.20;;;16.03;42.08;97898.13;4948755;28;103184;-55
2020/12/04 05:31:10;;;;;;;1.23;1.13;;;16.10;82.60;;;16.09;42.27;97912.63;4937685;28;98366;-56
2020/12/04 05:33:37;;;;;;;2.37;2.17;;;16.20;83.40;;;16.00;41.04;97908.25;4953243;28;97695;-57
2020/12/04 05:36:04;;;;;;;1.20;1.10;;;16.10;81.10;;;16.01;42.17;97907.25;4951812;28;101730;-56
2020/12/04 05:38:30;;;;;;;1.13;1.03;;;16.10;82.90;;;16.11;42.23;97921.28;4947551;28;99099;-58
2020/12/04 05:41:09;;;;;;;1.40;1.30;;;16.20;83.10;;;16.20;41.90;97915.06;4955572;28;127427;-58
2020/12/04 05:43:38;;;;;;;1.30;1.20;;;16.30;82.70;;;16.24;41.78;97921.72;4966572;28;97206;-57
2020/12/04 05:46:24;;;;;;;1.90;1.80;;;16.40;82.60;;;16.25;41.54;97902.09;4952964;28;96838;-57
2020/12/04 05:49:04;;;;;;;1.63;1.53;;;16.50;79.60;;;16.33;40.86;97907.47;4948355;28;100508;-58
2020/12/04 05:51:32;;;;;;;1.60;1.50;;;16.60;80.50;;;16.37;41.49;97915.97;4948417;28;98222;-57
2020/12/04 05:54:02;;;;;;;1.67;1.23;;;16.60;81.30;;;16.22;41.56;97915.72;4973301;28;98497;-58
2020/12/04 05:56:28;;;;;;;1.60;1.50;;;16.30;81.80;;;16.24;41.47;97916.41;4929747;28;100162;-58
2020/12/04 05:58:56;;;;;;;1.27;1.17;;;16.40;81.30;;;16.32;41.68;97913.78;4964088;28;97748;-59
2020/12/04 06:01:23;;;;;;;1.90;1.50;;;16.50;81.60;;;16.26;41.31;97919.72;4948395;28;97808;-56
2020/12/04 06:03:55;;;;;;;1.10;1.00;;;16.40;81.20;;;16.31;41.61;97921.91;4955353;28;96748;-58
2020/12/04 06:06:29;;;;;;;1.67;1.57;;;16.40;81.30;;;16.23;41.67;97916.56;4932188;28;98980;-57
2020/12/04 06:09:07;;;;;;;2.47;2.20;;;16.30;81.80;;;16.19;39.74;97929.31;4953740;28;102015;-58
2020/12/04 06:11:39;;;;;;;2.40;2.20;;;16.30;81.10;;;16.14;39.77;97923.63;4924648;28;110345;-58
2020/12/04 06:14:19;;;;;;;1.47;1.37;;;16.20;79.10;;;16.18;41.36;97932.97;4946950;28;97245;-57
2020/12/04 06:17:03;;;;;;;1.60;1.50;;;16.20;81.20;;;16.22;41.31;97921.03;4947242;28;102837;-57
2020/12/04 06:19:35;;;;;;;2.30;1.40;;;16.30;81.10;;;16.16;41.80;97928.78;4972066;28;97252;-58
2020/12/04 06:22:13;;;;;;;1.30;1.20;;;16.20;82.40;;;16.23;41.76;97936.00;4946213;28;115111;-57
2020/12/04 06:27:44;;;;;;;1.13;1.03;;;16.40;81.80;;;16.38;41.63;97919.47;4944558;28;102800;-57
2020/12/04 06:30:18;;;;;;;1.20;1.10;;;16.60;81.40;;;16.33;39.29;97926.06;4963482;28;97070;-56
2020/12/04 06:32:50;;;;;;;3.00;2.10;;;16.60;79.40;;;16.28;39.30;97920.41;4928732;28;97542;-55
2020/12/04 06:35:42;;;;;;;2.23;1.63;;;16.50;78.20;;;16.38;41.45;97920.31;4969523;28;97228;-57
2020/12/04 06:38:36;;;;;;;1.50;1.37;;;16.50;81.20;;;16.42;41.26;97931.47;4927170;28;97489;-57
2020/12/04 06:41:30;;;;;;;0.93;0.93;;;16.60;80.80;;;16.35;41.38;97924.13;4965110;28;97513;-57
2020/12/04 06:43:58;;;;;;;2.40;2.07;;;16.60;79.90;;;16.31;40.33;97933.38;4954936;28;107365;-57
2020/12/04 06:46:39;;;;;;;1.17;1.00;;;16.50;78.40;;;16.41;41.66;97940.44;4941385;28;99044;-54
2020/12/04 06:52:02;;;;;;;0.87;0.87;;;16.50;81.80;;;16.33;41.48;97942.03;4970218;28;101834;-56
2020/12/04 06:54:30;;;;;;;1.97;1.77;;;16.50;81.50;;;16.32;40.41;97929.72;4957851;28;97449;-56
2020/12/04 06:56:56;;;;;;;1.37;1.27;;;16.50;79.90;;;16.32;41.56;97937.72;4953827;28;97343;-54
2020/12/04 06:59:31;;;;;;;2.03;1.40;;;16.40;81.40;;;16.32;41.60;97945.69;4937068;28;98304;-56
2020/12/04 07:02:14;;;;;;;0.90;0.90;;;16.50;80.90;;;16.23;41.70;97949.31;4960495;28;101357;-54
2020/12/04 07:04:53;;;;;;;0.90;0.90;;;16.30;82.10;;;16.22;42.06;97947.63;4946621;28;97601;-57
2020/12/04 07:07:26;;;;;;;1.97;1.30;;;16.20;82.60;;;16.28;41.15;97949.66;4975543;28;97552;-56
2020/12/04 07:10:01;;;;;;;1.27;1.17;;;16.40;81.50;;;16.21;40.20;97958.44;4928633;28;99846;-57
2020/12/04 07:12:29;;;;;;;1.50;1.40;;;16.40;80.80;;;16.08;39.61;97945.53;4970767;28;97491;-58
2020/12/04 07:14:58;;;;;;;1.43;1.13;;;16.20;79.10;;;16.21;42.05;97956.59;4924411;28;102570;-57
2020/12/04 07:17:27;;;;;;;1.00;0.80;;;16.30;82.30;;;16.20;42.00;97957.59;4974980;28;96826;-53
2020/12/04 07:19:55;;;;;;;0.80;0.77;;;16.30;82.40;;;16.34;41.90;97959.66;4941967;28;97535;-57
2020/12/04 07:22:23;;;;;;;1.53;1.00;;;16.50;82.30;;;16.22;41.30;97962.75;4972356;28;99170;-58
2020/12/04 07:24:51;;;;;;;2.10;1.63;;;16.30;80.70;;;16.16;41.01;97964.19;4943789;28;97539;-56
2020/12/04 07:27:20;;;;;;;1.07;0.90;;;16.30;80.00;;;16.27;42.33;97969.25;4974093;28;97144;-55
2020/12/04 07:29:46;;;;;;;1.37;1.10;;;16.40;82.40;;;16.27;41.37;97974.59;4950664;28;99049;-57
2020/12/04 07:32:12;;;;;;;0.90;0.90;;;16.50;81.50;;;16.28;41.01;97981.56;4968895;28;111636;-58
2020/12/04 07:34:38;;;;;;;1.13;0.80;;;16.40;80.80;;;16.15;42.02;97970.50;4969352;28;106054;-57
2020/12/04 07:37:09;;;;;;;1.10;0.87;;;16.20;83.00;;;16.06;40.81;97987.41;4948948;28;97709;-58
2020/12/04 07:39:40;;;;;;;1.37;1.27;;;16.10;81.60;;;16.12;42.23;97997.41;4972017;28;97398;-57
2020/12/04 07:42:08;;;;;;;2.03;1.70;;;16.10;82.50;;;15.75;40.35;98003.69;4924378;28;102800;-57
2020/12/04 07:44:39;;;;;;;1.40;1.20;;;15.70;80.60;;;15.53;43.36;98006.78;4954322;28;97855;-57
2020/12/04 07:47:11;;;;;;;1.80;1.53;;;15.20;84.90;;;15.40;42.64;98024.91;4915091;28;97986;-59
2020/12/04 07:49:43;;;;;;;1.30;1.20;;;15.10;85.20;;;15.43;43.95;98032.56;4971453;28;97675;-59
2020/12/04 07:52:36;;;;;;;1.30;1.20;;;15.10;86.00;;;15.50;42.65;98033.66;4933941;28;97956;-63
2020/12/04 07:55:07;;;;;;;1.13;1.03;;;15.30;84.70;;;15.26;42.28;98030.69;4960253;28;101824;-58
2020/12/04 07:57:39;;;;;;;0.83;0.83;;;15.00;85.30;;;15.52;41.72;98031.69;4923125;28;97784;-58
2020/12/04 08:00:09;;;;;;;1.70;0.80;;;15.30;85.40;;;15.52;41.10;98039.66;4967447;28;98566;-58
2020/12/04 08:02:35;;;;;;;1.63;1.53;;;15.50;83.60;;;15.33;42.56;98037.06;4941377;28;116076;-59
2020/12/04 08:05:01;;;;;;;1.70;1.40;;;15.20;84.20;;;15.06;44.04;98041.41;4951989;28;125144;-57
2020/12/04 08:07:32;;;;;;;2.17;1.27;;;14.70;86.10;;;14.90;43.87;98041.19;4927191;28;109110;-59
2020/12/04 08:10:01;;;;;;;1.63;1.20;;;14.50;86.50;;;14.98;45.04;98030.69;4962782;28;97337;-59
2020/12/04 08:12:32;;;;;;;0.97;0.97;;;14.50;88.60;;;15.08;45.02;98039.44;4948670;28;103638;-58
2020/12/04 08:15:03;;;;;;;1.90;1.33;;;14.70;87.90;;;15.26;43.23;98051.94;4970573;28;101201;-58
2020/12/04 08:17:31;;;;;;;5.17;2.10;;;15.10;86.50;;;15.06;42.42;98057.34;4923352;28;103502;-56
2020/12/04 08:20:02;;;;;;;1.10;1.00;;;14.90;85.00;;;15.14;44.79;98054.78;4938113;28;99948;-59
2020/12/04 08:22:33;;;;;;;2.77;1.93;;;14.80;87.10;;;14.93;42.46;98059.47;4912601;28;115230;-59
2020/12/04 08:25:12;;;;;;;1.10;1.00;;;14.70;85.40;;;14.86;45.69;98067.16;4948319;28;97148;-56
2020/12/04 08:27:43;;;;;;;2.37;1.90;;;14.40;89.50;;;14.83;43.36;98067.47;4942993;28;98651;-58
2020/12/04 08:30:18;;;;;;;1.17;1.07;;;14.50;87.80;;;14.91;43.70;98050.84;4949656;28;97181;-58
2020/12/04 08:32:46;;;;;;;2.13;0.80;;;14.60;87.30;;;15.17;45.09;98051.81;4950290;28;97435;-58
2020/12/04 08:36:11;;;;;;;1.23;0.90;;;14.90;88.50;;;15.17;43.23;98043.84;4954290;28;103282;-56
2020/12/04 08:38:37;;;;;;;1.43;1.10;;;15.10;86.20;;;15.30;43.65;98051.50;4939181;28;97347;-58
2020/12/04 08:41:02;;;;;;;1.67;1.03;;;15.20;85.80;;;15.18;42.99;98050.84;4941747;28;101912;-59
2020/12/04 08:43:28;;;;;;;1.23;1.10;;;15.10;85.40;;;14.80;43.30;98051.00;4938013;28;116284;-57
2020/12/04 08:45:57;;;;;;;1.30;1.20;;;14.70;85.80;;;15.01;43.32;98054.28;4958960;28;105204;-56
2020/12/04 08:48:25;;;;;;;2.07;1.10;;;14.80;86.30;;;14.74;43.85;98048.91;4958109;28;97159;-57
2020/12/04 08:51:16;;;;;;;1.30;1.10;;;14.50;86.90;;;14.97;44.84;98044.09;4970643;28;96839;-60
2020/12/04 08:53:42;;;;;;;1.37;1.00;;;14.60;88.80;;;15.36;44.52;98042.13;4944881;28;103845;-60
2020/12/04 08:56:08;;;;;;;0.90;0.87;;;15.20;87.50;;;15.52;44.27;98050.28;4955595;28;98055;-61
2020/12/04 08:58:34;;;;;;;1.53;1.07;;;15.50;86.80;;;15.40;44.02;98051.44;4941495;28;96773;-60
2020/12/04 09:01:00;;;;;;;1.60;1.50;;;15.40;85.80;;;14.85;43.94;98062.84;4930030;28;103595;-60
2020/12/04 09:03:26;;;;;;;3.50;1.50;;;14.70;86.40;;;14.57;45.56;98048.66;4932375;28;100665;-58
2020/12/04 09:05:55;;;;;;;0.87;0.80;;;14.20;89.10;;;14.64;45.27;98061.38;4959258;28;97431;-57
2020/12/04 09:08:21;;;;;;;1.20;0.97;;;14.20;90.50;;;14.92;44.16;98047.19;4957691;28;96928;-63
2020/12/04 09:10:47;;;;;;;0.77;0.77;;;14.60;88.80;;;15.10;45.52;98042.78;4950260;28;97054;-56
2020/12/04 09:13:13;;;;;;;2.30;1.27;;;14.80;90.00;;;15.32;43.69;98051.34;4978579;28;103997;-58
2020/12/04 09:15:39;;;;;;;1.30;1.17;;;15.20;86.50;;;15.27;44.93;98057.09;4955268;28;96818;-60
2020/12/04 09:18:05;;;;;;;0.80;0.70;;;15.20;87.60;;;15.35;45.07;98051.06;4961152;28;96961;-60
2020/12/04 09:20:31;;;;;;;1.43;0.90;;;15.20;88.80;;;15.57;44.00;98057.78;4944118;28;97272;-59
2020/12/04 09:22:58;;;;;;;1.90;1.57;;;15.50;87.50;;;15.64;42.54;98064.22;4939414;28;98425;-60
2020/12/04 09:25:24;;;;;;;1.17;0.80;;;15.60;85.10;;;15.66;44.13;98065.75;4938871;28;99804;-57
2020/12/04 09:27:51;;;;;;;2.50;0.90;;;15.60;86.20;;;15.65;42.67;98073.88;4941472;28;98683;-58
2020/12/04 09:30:20;;;;;;;1.63;1.37;;;15.70;84.60;;;15.65;44.08;98095.13;4940797;28;99088;-58
2020/12/04 09:32:48;;;;;;;1.03;0.80;;;15.60;86.20;;;15.47;43.35;98092.34;4959566;28;106065;-60
2020/12/04 09:35:14;;;;;;;0.63;0.60;;;15.40;85.90;;;15.53;44.83;98096.25;4974115;28;97098;-60
2020/12/04 09:37:42;;;;;;;0.90;0.80;;;15.30;88.60;;;15.76;43.60;98094.88;4931845;28;107811;-58
2020/12/04 09:40:18;;;;;;;2.13;1.20;;;15.80;85.50;;;15.53;42.90;98091.78;4938494;28;97163;-57
2020/12/04 09:42:46;;;;;;;0.87;0.70;;;15.50;84.40;;;15.62;42.73;98121.97;4930876;28;98574;-58
2020/12/04 09:45:13;;;;;;;1.23;0.97;;;15.50;86.00;;;15.36;42.93;98132.41;4954485;28;97704;-57
2020/12/04 09:47:39;;;;;;;1.87;1.37;;;15.30;85.70;;;15.19;43.65;98136.66;4961567;28;97131;-58
2020/12/04 09:50:12;;;;;;;1.90;0.83;;;15.00;86.60;;;15.11;44.40;98134.72;4968577;28;96888;-57
2020/12/04 09:52:39;;;;;;;1.33;0.97;;;14.90;87.40;;;15.22;44.53;98135.53;4930567;28;97267;-60
2020/12/04 09:55:08;;;;;;;0.80;0.80;;;14.90;88.10;;;15.25;43.97;98140.56;4941078;28;97024;-59
2020/12/04 09:57:34;;;;;;;1.13;1.03;;;15.00;87.90;;;15.14;44.62;98137.06;4937387;28;102201;-58
2020/12/04 10:00:02;;;;;;;1.10;1.00;;;15.00;87.80;;;15.19;45.25;98126.03;4969736;28;96876;-57
2020/12/04 10:02:28;;;;;;;1.17;0.80;;;14.90;89.20;;;15.21;45.06;98128.56;4956185;28;100790;-56
2020/12/04 10:04:55;;;;;;;0.90;0.73;;;15.00;88.20;;;15.49;43.47;98132.91;4953476;28;99650;-56
2020/12/04 10:07:21;;;;;;;0.70;0.60;;;15.30;87.50;;;15.50;43.30;98139.91;4924565;28;96615;-55
2020/12/04 10:09:47;;;;;;;0.60;0.60;;;15.50;86.60;;;15.54;44.84;98135.97;4943842;28;97996;-56
2020/12/04 10:12:13;;;;;;;0.93;0.70;;;15.40;88.50;;;15.51;44.74;98141.56;4943908;28;101023;-55
2020/12/04 10:14:41;;;;;;;2.50;0.90;;;15.40;88.10;;;15.62;44.25;98138.78;4923669;28;97431;-59
2020/12/04 10:17:08;;;;;;;1.83;1.07;;;15.50;86.90;;;15.50;43.58;98145.22;4944513;28;96893;-57
2020/12/04 10:19:34;;;;;;;442.50;396.03;;;15.50;86.60;;;15.35;43.87;98146.69;4941147;28;109741;-57
2020/12/04 10:22:00;;;;;;;8.23;7.40;;;15.30;87.10;;;15.15;45.42;98144.06;4970502;28;97674;-55
2020/12/04 10:24:27;;;;;;;5.00;3.90;;;14.90;89.40;;;15.16;45.78;98145.72;4958933;28;112219;-56
2020/12/04 10:26:53;;;;;;;5.67;3.93;;;14.80;90.00;;;15.20;45.54;98140.16;5027158;23;98176;-57
2020/12/04 10:29:20;;;;;;;5.30;4.30;;;14.90;89.40;;;15.42;45.37;98134.47;4924718;28;98366;-58